Thunder radar more information blitzortung!


avis per Pluja more information rain snow radar


Visita la nostra xarxa de llocs de meteo:

Template documentation
and downloads

And another site



Rain From: 18-10-2018 10:00 Until: 16:59 warning for: Rain Level: Yellow info button

Pagina Historial Weather Underground text

Diari Resum Novembre 30, 2017 Unitats:  Mètric    Imperial   Tant
« Previous Dia
SegĂźent Dia »
Diari Setmana Mensual Anual Personalitzada
  Maxima: Minima: Media:
Temperatura: -17.8 °C -17.4 °C -14.9 °C
Punt de rosada: -17.8 °C -23.3 °C -20.3 °C
Humitat: Humidity % 32 % 52 %
Wind Speed: 0 km/h 0 km/h 5 km/h
RĂ fegues de vent: 0 km/h - -
Vent:- - SSW
Pression baro: 0 hPa 34130.9 hPa -
Precipitacions: 0 mm    
Historical Graphs
 
 
Dades de taula per Novembre 30, 2017
Temps Temperatura Punt de rosada Pression baro Vent Wind Speed RĂ fegues de vent Humitat Rainfall Rate (Hourly)
-17.8 °C -17.8 °C 0 hPa Calm     Humidity % 0 mm
00:00 -16 °C -19 °C 34130.9 hPa SW 4.2 km/h 4.2 km/h 68 % 0 mm
00:05 -16.1 °C -19 °C 34130.9 hPa SW 7.6 km/h 7.6 km/h 68 % 0 mm
00:20 -16.2 °C -19.1 °C 34130.9 hPa SW 2.6 km/h 5.1 km/h 68 % 0 mm
00:25 -16.2 °C -19.1 °C 34130.9 hPa West 2.6 km/h   68 % 0 mm
00:30 -16.2 °C -19 °C 34130.9 hPa North 2.6 km/h 5.1 km/h 69 % 0 mm
00:35 -16.2 °C -19 °C 34130.9 hPa NE 2.6 km/h 5.1 km/h 69 % 0 mm
00:40 -16.2 °C -18.9 °C 34130.9 hPa NE 5.1 km/h 5.1 km/h 70 % 0 mm
00:45 -16.2 °C -18.9 °C 34130.9 hPa NE 2.6 km/h 2.6 km/h 70 % 0 mm
00:50 -16.3 °C -19.1 °C 34164.7 hPa North 2.6 km/h 5.1 km/h 70 % 0 mm
00:55 -16.3 °C -19.1 °C 34164.7 hPa NNE 2.6 km/h   70 % 0 mm
01:00 -16.3 °C -19.1 °C 34164.7 hPa Calm   2.6 km/h 70 % 0 mm
01:05 -16.3 °C -19.1 °C 34164.7 hPa Calm     70 % 0 mm
01:10 -16.4 °C -19.1 °C 34164.7 hPa South 2.6 km/h 5.1 km/h 70 % 0 mm
01:20 -16.4 °C -19.1 °C 34164.7 hPa Calm     70 % 0 mm
01:25 -16.4 °C -19.1 °C 34164.7 hPa Calm     70 % 0 mm
01:50 -16.3 °C -19.2 °C 34198.6 hPa WSW 5.1 km/h 5.1 km/h 69 % 0 mm
01:55 -16.3 °C -19.1 °C 34198.6 hPa Calm   5.1 km/h 70 % 0 mm
02:00 -16.2 °C -18.9 °C 34198.6 hPa Calm   5.1 km/h 70 % 0 mm
02:05 -15.9 °C -18.8 °C 34198.6 hPa WSW 5.1 km/h 5.1 km/h 69 % 0 mm
02:15 -15.6 °C -18.6 °C 34164.7 hPa ENE 2.6 km/h 2.6 km/h 68 % 0 mm
02:20 -15.7 °C -18.7 °C 34164.7 hPa NE 2.6 km/h 5.1 km/h 68 % 0 mm
02:25 -16 °C -19.1 °C 34164.7 hPa ENE 5.1 km/h 5.1 km/h 67 % 0 mm
02:30 -16.1 °C -19.2 °C 34198.6 hPa Calm   5.1 km/h 67 % 0 mm
02:35 -16.2 °C -19.3 °C 34198.6 hPa SSE 2.6 km/h 5.1 km/h 67 % 0 mm
02:45 -16.3 °C -19.4 °C 34198.6 hPa NW 2.6 km/h 2.6 km/h 67 % 0 mm
02:50 -16.4 °C -19.3 °C 34198.6 hPa Calm   2.6 km/h 68 % 0 mm
02:55 -16.3 °C -19.3 °C 34198.6 hPa Calm     68 % 0 mm
03:05 -16.3 °C -19.2 °C 34198.6 hPa Calm     68 % 0 mm
03:10 -16.2 °C -19.2 °C 34198.6 hPa WNW 2.6 km/h 2.6 km/h 68 % 0 mm
03:15 -16.2 °C -19.2 °C 34198.6 hPa Calm     68 % 0 mm
03:20 -16.2 °C -19.2 °C 34198.6 hPa Calm   2.6 km/h 68 % 0 mm
03:25 -16.3 °C -19.3 °C 34198.6 hPa Calm     68 % 0 mm
03:30 -16.3 °C -19.2 °C 34198.6 hPa Calm     68 % 0 mm
03:35 -16.2 °C -19.2 °C 34198.6 hPa Calm     68 % 0 mm
03:40 -16.2 °C -19.2 °C 34198.6 hPa Calm     68 % 0 mm
03:45 -16.3 °C -19.3 °C 34198.6 hPa NNW 2.6 km/h 2.6 km/h 68 % 0 mm
03:50 -16.3 °C -19.3 °C 34198.6 hPa NNW 2.6 km/h 5.1 km/h 68 % 0 mm
03:55 -16.3 °C -19.3 °C 34198.6 hPa North 7.7 km/h 7.7 km/h 68 % 0 mm
04:00 -16.3 °C -19.3 °C 34198.6 hPa NE 2.6 km/h 7.7 km/h 68 % 0 mm
04:05 -16.4 °C -19.3 °C 34198.6 hPa NNE 2.6 km/h 2.6 km/h 68 % 0 mm
04:10 -16.4 °C -19.3 °C 34198.6 hPa NE 2.6 km/h 2.6 km/h 68 % 0 mm
04:15 -16.4 °C -19.4 °C 34198.6 hPa NNE 5.1 km/h 5.1 km/h 68 % 0 mm
04:20 -16.4 °C -19.4 °C 34198.6 hPa North 5.1 km/h 5.1 km/h 68 % 0 mm
04:25 -16.6 °C -19.5 °C 34198.6 hPa NNE 2.6 km/h 5.1 km/h 68 % 0 mm
04:30 -16.6 °C -19.5 °C 34198.6 hPa NNE 2.6 km/h 5.1 km/h 68 % 0 mm
04:35 -16.6 °C -19.6 °C 34198.6 hPa NNE 2.6 km/h 2.6 km/h 68 % 0 mm
04:40 -16.6 °C -19.6 °C 34198.6 hPa NNE 2.6 km/h 2.6 km/h 68 % 0 mm
04:45 -16.7 °C -19.6 °C 34198.6 hPa North 5.1 km/h 5.1 km/h 68 % 0 mm
04:50 -16.7 °C -19.7 °C 34198.6 hPa NNW 2.6 km/h 5.1 km/h 68 % 0 mm
04:55 -16.7 °C -19.7 °C 34198.6 hPa NW 2.6 km/h 5.1 km/h 68 % 0 mm
05:00 -16.8 °C -19.7 °C 34198.6 hPa NW 2.6 km/h 2.6 km/h 68 % 0 mm
05:05 -16.8 °C -19.7 °C 34198.6 hPa Calm     68 % 0 mm
05:10 -16.8 °C -19.8 °C 34198.6 hPa West 2.6 km/h 2.6 km/h 68 % 0 mm
05:15 -16.9 °C -19.9 °C 34198.6 hPa West 5.1 km/h 5.1 km/h 68 % 0 mm
05:20 -16.9 °C -19.9 °C 34198.6 hPa West 5.1 km/h 5.1 km/h 68 % 0 mm
05:25 -17.1 °C -19.9 °C 34198.6 hPa Calm     68 % 0 mm
05:30 -17.1 °C -19.9 °C 34198.6 hPa Calm     68 % 0 mm
05:35 -17.1 °C -19.9 °C 34198.6 hPa Calm   5.1 km/h 69 % 0 mm
05:40 -17.1 °C -19.9 °C 34198.6 hPa Calm   5.1 km/h 69 % 0 mm
05:45 -17 °C -19.8 °C 34198.6 hPa NNW 2.6 km/h   69 % 0 mm
05:50 -17 °C -19.8 °C 34198.6 hPa NNW 2.6 km/h 5.1 km/h 69 % 0 mm
05:55 -17.1 °C -19.9 °C 34198.6 hPa WNW 2.6 km/h 2.6 km/h 69 % 0 mm
06:00 -17.1 °C -19.9 °C 34198.6 hPa NW 2.6 km/h 2.6 km/h 69 % 0 mm
06:05 -17.1 °C -19.9 °C 34198.6 hPa WNW 2.6 km/h   69 % 0 mm
06:10 -17.1 °C -19.9 °C 34198.6 hPa West 2.6 km/h   69 % 0 mm
06:35 -17.1 °C -20.1 °C 34164.7 hPa Calm   2.6 km/h 68 % 0 mm
06:40 -17.1 °C -20.1 °C 34164.7 hPa NNW 2.6 km/h 2.6 km/h 68 % 0 mm
06:45 -17.2 °C -20.1 °C 34198.6 hPa West 2.6 km/h 2.6 km/h 68 % 0 mm
06:50 -17.2 °C -20.1 °C 34198.6 hPa Calm   2.6 km/h 68 % 0 mm
06:55 -17.2 °C -20.1 °C 34198.6 hPa Calm   2.6 km/h 68 % 0 mm
07:00 -17.2 °C -20.1 °C 34198.6 hPa Calm     68 % 0 mm
07:05 -17.2 °C -20.1 °C 34198.6 hPa NW 2.6 km/h 2.6 km/h 68 % 0 mm
07:10 -17.3 °C -20.2 °C 34198.6 hPa West 2.6 km/h 5.1 km/h 68 % 0 mm
07:15 -17.3 °C -20.2 °C 34198.6 hPa West 2.6 km/h 5.1 km/h 68 % 0 mm
07:20 -17.4 °C -20.3 °C 34198.6 hPa Calm     68 % 0 mm
07:40 -17.3 °C -20.2 °C 34222.3 hPa Calm     68 % 0 mm
07:45 -17.3 °C -20.2 °C 34222.3 hPa Calm     68 % 0 mm
07:50 -17.3 °C -20.2 °C 34222.3 hPa Calm     68 % 0 mm
07:55 -17.3 °C -20.3 °C 34222.3 hPa Calm   5.1 km/h 67 % 0 mm
08:00 -17.3 °C -20.3 °C 34222.3 hPa Calm     67 % 0 mm
08:05 -17.4 °C -20.4 °C 34222.3 hPa WSW 2.6 km/h 5.1 km/h 67 % 0 mm
08:10 -17.4 °C -20.4 °C 34222.3 hPa Calm   2.6 km/h 67 % 0 mm
08:15 -17.4 °C -20.4 °C 34222.3 hPa NW 2.6 km/h 2.6 km/h 67 % 0 mm
08:20 -17.4 °C -20.4 °C 34256.2 hPa NW 2.6 km/h 5.1 km/h 67 % 0 mm
08:30 -17.1 °C -20.2 °C 34256.2 hPa NNW 2.6 km/h   67 % 0 mm
08:35 -16.9 °C -19.9 °C 34256.2 hPa Calm   2.6 km/h 67 % 0 mm
08:40 -16.9 °C -19.9 °C 34256.2 hPa Calm     67 % 0 mm
08:45 -17 °C -20.2 °C 34256.2 hPa West 2.6 km/h 2.6 km/h 66 % 0 mm
08:50 -16.8 °C -19.8 °C 34256.2 hPa Calm     67 % 0 mm
09:00 -16.4 °C -19.6 °C 34256.2 hPa NNW 2.6 km/h 7.7 km/h 66 % 0 mm
09:05 -16.1 °C -19.3 °C 34222.3 hPa NNW 2.6 km/h 2.6 km/h 65 % 0 mm
09:15 -15.9 °C -19.4 °C 34256.2 hPa NNE 5.1 km/h 5.1 km/h 64 % 0 mm
09:20 -15.9 °C -19.4 °C 34256.2 hPa NNE 5.1 km/h 5.1 km/h 64 % 0 mm
09:25 -15.8 °C -19.4 °C 34256.2 hPa NNW 2.6 km/h 5.1 km/h 63 % 0 mm
09:30 -15.8 °C -19.4 °C 34256.2 hPa North 2.6 km/h 5.1 km/h 63 % 0 mm
09:35 -15.3 °C -18.9 °C 34256.2 hPa Calm     63 % 0 mm
09:40 -15.3 °C -18.9 °C 34256.2 hPa Calm   2.6 km/h 63 % 0 mm
09:45 -15.3 °C -19 °C 34256.2 hPa ESE 2.6 km/h 5.1 km/h 62 % 0 mm
09:50 -15.3 °C -19 °C 34256.2 hPa SSE 2.6 km/h 5.1 km/h 62 % 0 mm
09:55 -15.3 °C -19.2 °C 34256.2 hPa Calm     61 % 0 mm
10:00 -15.3 °C -19.2 °C 34256.2 hPa Calm   10.3 km/h 61 % 0 mm
10:05 -15.1 °C -19.1 °C 34256.2 hPa NE 5.1 km/h 5.1 km/h 59 % 0 mm
10:10 -14.9 °C -19 °C 34256.2 hPa East 2.6 km/h 5.1 km/h 59 % 0 mm
10:15 -14.8 °C -18.9 °C 34256.2 hPa East 2.6 km/h 5.1 km/h 59 % 0 mm
10:20 -14.8 °C -18.9 °C 34256.2 hPa East 2.6 km/h 5.1 km/h 59 % 0 mm
10:36 -14.6 °C -18.9 °C 34293.4 hPa SW 6 km/h 6 km/h 57 % 0 mm
10:41 -14.6 °C -19.1 °C 34293.4 hPa WSW 3.7 km/h 3.7 km/h 56 % 0 mm
10:46 -14.3 °C -18.8 °C 34327.3 hPa ESE 6.3 km/h 6.3 km/h 56 % 0 mm
10:51 -14.2 °C -18.8 °C 34327.3 hPa North 6 km/h 6 km/h 56 % 0 mm
10:56 -14.3 °C -18.8 °C 34327.3 hPa East 6 km/h 6 km/h 56 % 0 mm
11:01 -14.1 °C -18.7 °C 34327.3 hPa East 6 km/h 6 km/h 55 % 0 mm
11:06 -14 °C -18.7 °C 34327.3 hPa ENE 9 km/h 9 km/h 55 % 0 mm
11:16 -14.2 °C -18.8 °C 34327.3 hPa ENE 9 km/h 9 km/h 55 % 0 mm
11:21 -14 °C -18.8 °C 34327.3 hPa East 9 km/h 9 km/h 54 % 0 mm
11:26 -13.9 °C -18.7 °C 34327.3 hPa ESE 9 km/h 9 km/h 54 % 0 mm
11:31 -13.7 °C -18.7 °C 34327.3 hPa SSE 9.8 km/h 9.8 km/h 53 % 0 mm
11:36 -13.8 °C -18.8 °C 34327.3 hPa ESE 6 km/h 6 km/h 53 % 0 mm
11:41 -13.5 °C -18.5 °C 34327.3 hPa South 6 km/h 6 km/h 53 % 0 mm
11:46 -13.6 °C -18.7 °C 34293.4 hPa ESE 10.3 km/h 10.3 km/h 52 % 0 mm
11:51 -13.5 °C -18.8 °C 34293.4 hPa NE 9 km/h 9 km/h 51 % 0 mm
11:56 -13.4 °C -18.7 °C 34293.4 hPa ENE 9 km/h 9 km/h 51 % 0 mm
12:06 -13.3 °C -18.9 °C 34256.2 hPa ESE 11.9 km/h 11.9 km/h 49 % 0 mm
12:11 -13.1 °C -18.6 °C 34256.2 hPa SSE 5.1 km/h   50 % 0 mm
12:16 -13 °C -18.6 °C 34256.2 hPa SSE 6 km/h 6 km/h 49 % 0 mm
12:21 -12.9 °C -18.6 °C 34256.2 hPa ESE 6.3 km/h 6.3 km/h 49 % 0 mm
12:26 -12.9 °C -18.5 °C 34256.2 hPa ENE 15 km/h 15 km/h 49 % 0 mm
12:31 -12.7 °C -18.5 °C 34256.2 hPa SSE 6 km/h 6 km/h 48 % 0 mm
12:36 -12.7 °C -18.5 °C 34256.2 hPa ESE 9 km/h 9 km/h 48 % 0 mm
12:41 -12.7 °C -18.5 °C 34256.2 hPa ENE 11.9 km/h 11.9 km/h 48 % 0 mm
12:46 -12.4 °C -18.2 °C 34256.2 hPa NNE 6.8 km/h 6.8 km/h 48 % 0 mm
12:51 -12.3 °C -18.5 °C 34256.2 hPa ESE 9 km/h 9 km/h 46 % 0 mm
12:56 -12.3 °C -18.4 °C 34256.2 hPa NE 9 km/h 9 km/h 46 % 0 mm
13:01 -12.3 °C -18.7 °C 34256.2 hPa WSW 11.9 km/h 11.9 km/h 45 % 0 mm
13:06 -12.1 °C -18.1 °C 34256.2 hPa ENE 3.7 km/h 3.7 km/h 47 % 0 mm
13:11 -11.8 °C -17.7 °C 34256.2 hPa NNW 15 km/h 15 km/h 48 % 0 mm
13:26 -11.7 °C -18.4 °C 34256.2 hPa NNW 9 km/h 9 km/h 43 % 0 mm
13:31 -11.6 °C -18.2 °C 34293.4 hPa West 6 km/h 6 km/h 44 % 0 mm
13:36 -11.6 °C -18.3 °C 34293.4 hPa WSW 11.1 km/h 11.1 km/h 43 % 0 mm
13:41 -11.5 °C -18.1 °C 34293.4 hPa SW 11.9 km/h 11.9 km/h 44 % 0 mm
13:46 -11.4 °C -18.2 °C 34256.2 hPa SW 6 km/h 6 km/h 43 % 0 mm
13:51 -11.4 °C -17.9 °C 34256.2 hPa West 11.9 km/h 11.9 km/h 44 % 0 mm
13:56 -11.3 °C -18.1 °C 34256.2 hPa WSW 9 km/h 9 km/h 43 % 0 mm
14:01 -11.4 °C -18.3 °C 34256.2 hPa ENE 6.3 km/h 6.3 km/h 42 % 0 mm
14:06 -11.4 °C -18.4 °C 34256.2 hPa WSW 9 km/h 9 km/h 42 % 0 mm
14:11 -11.4 °C -18.5 °C 34256.2 hPa WSW 15 km/h 15 km/h 41 % 0 mm
14:16 -11.4 °C -18.5 °C 34256.2 hPa NW 11.9 km/h 11.9 km/h 41 % 0 mm
14:21 -11.4 °C -18.5 °C 34256.2 hPa WNW 19.2 km/h 19.2 km/h 41 % 0 mm
14:31 -11.4 °C -18.9 °C 34256.2 hPa WSW 14.5 km/h 14.5 km/h 39 % 0 mm
14:36 -11.4 °C -19.1 °C 34256.2 hPa WSW 23.8 km/h 23.8 km/h 38 % 0 mm
14:41 -11.3 °C -19.1 °C 34256.2 hPa WSW 19.6 km/h 19.6 km/h 38 % 0 mm
15:01 -11.1 °C -19.2 °C 34256.2 hPa SW 11.9 km/h 11.9 km/h 36 % 0 mm
15:06 -11.2 °C -19.3 °C 34256.2 hPa SW 23.8 km/h 23.8 km/h 36 % 0 mm
15:21 -11.3 °C -19.8 °C 34256.2 hPa West 11.9 km/h 11.9 km/h 34 % 0 mm
15:26 -11.2 °C -19.8 °C 34256.2 hPa West 9.3 km/h 9.3 km/h 34 % 0 mm
15:31 -11.3 °C -19.8 °C 34256.2 hPa WSW 9 km/h 9 km/h 34 % 0 mm
15:36 -11.2 °C -19.8 °C 34256.2 hPa West 6.3 km/h 6.8 km/h 34 % 0 mm
15:41 -11.3 °C -19.8 °C 34256.2 hPa West 11.9 km/h 11.9 km/h 34 % 0 mm
15:51 -11.3 °C -19.9 °C 34256.2 hPa West 6.8 km/h 6.8 km/h 34 % 0 mm
16:01 -11.4 °C -19.9 °C 34256.2 hPa West 15 km/h 15 km/h 34 % 0 mm
16:06 -11.6 °C -20.1 °C 34256.2 hPa WSW 23.8 km/h 23.8 km/h 34 % 0 mm
16:11 -11.7 °C -20.4 °C 34256.2 hPa ENE 15 km/h 15 km/h 33 % 0 mm
16:16 -11.7 °C -20.4 °C 34256.2 hPa WSW 9.3 km/h 9.3 km/h 33 % 0 mm
16:21 -11.7 °C -20.4 °C 34256.2 hPa West 15 km/h 15 km/h 33 % 0 mm
16:26 -11.8 °C -20.4 °C 34256.2 hPa WSW 9 km/h 9 km/h 33 % 0 mm
16:36 -12.1 °C -21 °C 34256.2 hPa West 15 km/h 15.3 km/h 32 % 0 mm
16:41 -12.1 °C -21 °C 34256.2 hPa SW 11.9 km/h 11.9 km/h 32 % 0 mm
16:46 -12.2 °C -21.1 °C 34293.4 hPa West 9 km/h 9 km/h 32 % 0 mm
16:56 -12.4 °C -21 °C 34293.4 hPa West 9 km/h 9 km/h 33 % 0 mm
17:11 -12.8 °C -21.3 °C 34256.2 hPa WSW 15 km/h 15 km/h 33 % 0 mm
17:16 -12.9 °C -21.4 °C 34293.4 hPa West 6 km/h 6 km/h 33 % 0 mm
17:21 -13.1 °C -21.6 °C 34293.4 hPa NW 3.1 km/h   33 % 0 mm
17:26 -13.2 °C -21.7 °C 34293.4 hPa NW 3.1 km/h 3.7 km/h 33 % 0 mm
17:31 -13.3 °C -22 °C 34256.2 hPa Calm     32 % 0 mm
17:42 -13.5 °C -22 °C 34256.2 hPa WNW 5.1 km/h   33 % 0 mm
17:47 -13.6 °C -22.1 °C 34256.2 hPa WNW 3.1 km/h 3.1 km/h 33 % 0 mm
17:57 -13.7 °C -22.2 °C 34256.2 hPa Calm     33 % 0 mm
18:07 -13.9 °C -22.3 °C 34293.4 hPa Calm     33 % 0 mm
18:12 -13.9 °C -22.4 °C 34293.4 hPa Calm     33 % 0 mm
18:17 -14.1 °C -22.4 °C 34293.4 hPa WSW 6 km/h 6 km/h 33 % 0 mm
18:22 -14.1 °C -22.6 °C 34293.4 hPa NW 3.1 km/h 3.1 km/h 33 % 0 mm
18:27 -14.2 °C -22.6 °C 34293.4 hPa Calm     33 % 0 mm
18:32 -14.3 °C -22.7 °C 34293.4 hPa NW 3.1 km/h   33 % 0 mm
18:37 -14.3 °C -22.7 °C 34293.4 hPa Calm     33 % 0 mm
18:42 -14.3 °C -22.7 °C 34293.4 hPa Calm     33 % 0 mm
18:47 -14.4 °C -22.8 °C 34327.3 hPa NW 3.1 km/h 3.7 km/h 33 % 0 mm
18:52 -14.3 °C -22.7 °C 34327.3 hPa NNE 6 km/h 6 km/h 33 % 0 mm
18:57 -14.3 °C -22.7 °C 34327.3 hPa East 6 km/h 6.3 km/h 33 % 0 mm
19:02 -14.2 °C -22.6 °C 34327.3 hPa SW 6 km/h 6 km/h 33 % 0 mm
19:07 -14.3 °C -22.7 °C 34327.3 hPa Calm     33 % 0 mm
19:12 -14.3 °C -22.7 °C 34327.3 hPa SE 6 km/h 6 km/h 33 % 0 mm
19:17 -14.3 °C -22.7 °C 34327.3 hPa SSE 3.1 km/h   33 % 0 mm
19:27 -14.6 °C -22.9 °C 34327.3 hPa West 3.1 km/h   33 % 0 mm
19:32 -14.7 °C -23 °C 34327.3 hPa West 3.1 km/h 3.7 km/h 33 % 0 mm
19:42 -14.9 °C -23.2 °C 34327.3 hPa WSW 3.1 km/h 3.1 km/h 33 % 0 mm
19:52 -14.9 °C -23.3 °C 34361.1 hPa West 3.7 km/h 3.7 km/h 33 % 0 mm
20:02 -14.8 °C -23.1 °C 34327.3 hPa WNW 3.7 km/h 3.7 km/h 33 % 0 mm
20:07 -14.9 °C -23 °C 34327.3 hPa WSW 3.1 km/h   34 % 0 mm
20:12 -15 °C -23.1 °C 34327.3 hPa WSW 3.1 km/h 3.1 km/h 34 % 0 mm
20:17 -15.2 °C -23.3 °C 34327.3 hPa WSW 4.2 km/h 4.2 km/h 34 % 0 mm
20:22 -15.2 °C -23.3 °C 34327.3 hPa Calm     34 % 0 mm
20:27 -15.2 °C -23.3 °C 34327.3 hPa Calm     34 % 0 mm
20:32 -14.9 °C -23.1 °C 34327.3 hPa West 6 km/h 6 km/h 34 % 0 mm
20:37 -14.9 °C -23.1 °C 34327.3 hPa Calm     34 % 0 mm
20:38 -14.9 °C -23.1 °C 34327.3 hPa West 3.1 km/h   34 % 0 mm
20:43 -14.9 °C -23 °C 34327.3 hPa SW 3.1 km/h 3.1 km/h 34 % 0 mm
20:48 -14.9 °C -23 °C 34327.3 hPa ENE 8 km/h   34 % 0 mm
20:53 -14.9 °C -22.8 °C 34327.3 hPa NE 6 km/h   35 % 0 mm
20:58 -14.8 °C -22.7 °C 34327.3 hPa ENE 9 km/h 9 km/h 35 % 0 mm
21:03 -14.8 °C -22.6 °C 34327.3 hPa SSE 9 km/h 9 km/h 36 % 0 mm
21:13 -14.5 °C -22.3 °C 34327.3 hPa NNE 11.9 km/h 11.9 km/h 36 % 0 mm
21:18 -14.7 °C -22.4 °C 34327.3 hPa NNW 6.3 km/h 6.3 km/h 36 % 0 mm
21:23 -14.9 °C -22.6 °C 34327.3 hPa East 7.6 km/h 7.6 km/h 36 % 0 mm
21:28 -15 °C -22.7 °C 34327.3 hPa NNE 6 km/h 6 km/h 36 % 0 mm
21:33 -15.2 °C -22.9 °C 34293.4 hPa ESE 9 km/h 9 km/h 36 % 0 mm
21:39 -15.3 °C -22.9 °C 34293.4 hPa ESE 6 km/h 6 km/h 36 % 0 mm
21:44 -15.4 °C -23.1 °C 34293.4 hPa SE 3.1 km/h   36 % 0 mm
21:54 -15.7 °C -23.3 °C 34293.4 hPa NNE 9 km/h 9 km/h 36 % 0 mm
21:59 -15.7 °C -23.3 °C 34293.4 hPa ENE 8 km/h 8 km/h 36 % 0 mm
22:04 -15.7 °C -23.1 °C 34327.3 hPa NNE 9 km/h 9 km/h 37 % 0 mm
22:09 -15.7 °C -23.1 °C 34327.3 hPa ENE 3.1 km/h   37 % 0 mm
22:14 -15.6 °C -23.1 °C 34327.3 hPa ENE 6 km/h 6 km/h 37 % 0 mm
22:19 -15.7 °C -23.1 °C 34327.3 hPa ESE 5.1 km/h 5.1 km/h 37 % 0 mm
22:24 -15.6 °C -22.9 °C 34327.3 hPa East 6 km/h 6 km/h 38 % 0 mm
22:44 -16 °C -23 °C 34361.1 hPa ENE 6 km/h 6 km/h 39 % 0 mm
22:49 -15.9 °C -23 °C 34327.3 hPa WSW 3.1 km/h 3.1 km/h 39 % 0 mm
22:54 -15.9 °C -22.9 °C 34327.3 hPa Calm     39 % 0 mm
22:59 -15.8 °C -22.8 °C 34327.3 hPa West 6 km/h 6 km/h 39 % 0 mm
23:04 -15.7 °C -22.6 °C 34327.3 hPa WNW 8 km/h 8 km/h 40 % 0 mm
23:09 -15.5 °C -22.2 °C 34327.3 hPa WSW 9 km/h 9 km/h 41 % 0 mm
23:19 -15.4 °C -21.9 °C 34327.3 hPa WSW 4.2 km/h 4.2 km/h 42 % 0 mm
23:24 -15.4 °C -21.9 °C 34327.3 hPa WNW 6 km/h 6 km/h 42 % 0 mm
23:34 -15.4 °C -21.8 °C 34327.3 hPa NW 6 km/h 6 km/h 43 % 0 mm
23:39 -15.4 °C -21.6 °C 34327.3 hPa ENE 6 km/h 6 km/h 44 % 0 mm
23:49 -15.3 °C -21.6 °C 34293.4 hPa WSW 11.9 km/h 11.9 km/h 44 % 0 mm
23:55 -15.4 °C -21.4 °C 34293.4 hPa West 6 km/h 6 km/h 45 % 0 mm
Meteo Sesrovires
Elogis d' Weather Underground - 1.5 mb

Guio original per  Jim McMurry - jmcmurry@mwt.net Adaptat per a la plantilla per  Wim van der Kuil - Leuven-Template.eu

Trobareu la nostra informacio del temps tambe a:

Weather Underground

AWEKAS